Time;durP1;ratioP1;P1;durP2;ratioP2;P2;SDS_P1;SDS_P2;PMS_P1;PMS_P2;Temp;Humidity;BMP_temperature;BMP_pressure;BME280_temperature;BME280_humidity;BME280_pressure;Samples;Min_cycle;Max_cycle;Signal;HPM_P1;HPM_P2
2023/03/16 00:00:18;;;;;;;4.55;2.58;;;;;;;1.14;100.00;101878.53;5010584;28;20374;-79
2023/03/16 00:02:45;;;;;;;7.68;3.25;;;;;;;1.13;100.00;101872.41;5033368;28;20040;-78
2023/03/16 00:05:16;;;;;;;7.13;2.40;;;;;;;1.14;100.00;101869.03;4997419;28;20038;-78
2023/03/16 00:07:43;;;;;;;6.72;2.67;;;;;;;1.15;100.00;101864.72;5014454;28;20067;-79
2023/03/16 00:10:13;;;;;;;4.07;2.63;;;;;;;1.17;100.00;101863.13;4998661;28;20062;-79
2023/03/16 00:12:42;;;;;;;4.63;2.58;;;;;;;1.19;100.00;101858.00;5015245;28;20041;-79
2023/03/16 00:15:11;;;;;;;8.63;2.47;;;;;;;1.20;100.00;101858.09;5012813;28;20045;-80
2023/03/16 00:17:38;;;;;;;7.60;2.53;;;;;;;1.24;100.00;101851.38;4999276;28;20056;-79
2023/03/16 00:20:06;;;;;;;5.10;2.38;;;;;;;1.23;100.00;101847.00;4958538;28;20505;-79
2023/03/16 00:22:33;;;;;;;4.90;2.30;;;;;;;1.24;100.00;101830.63;5048920;28;20045;-79
2023/03/16 00:25:01;;;;;;;6.07;2.92;;;;;;;1.25;100.00;101842.78;4996625;28;20042;-78
2023/03/16 00:27:28;;;;;;;5.57;2.80;;;;;;;1.26;100.00;101836.78;5020576;28;20041;-79
2023/03/16 00:29:56;;;;;;;8.68;2.60;;;;;;;1.26;100.00;101840.28;5013510;28;20041;-79
2023/03/16 00:32:30;;;;;;;4.30;2.58;;;;;;;1.26;100.00;101848.06;5014251;28;20061;-79
2023/03/16 00:35:00;;;;;;;5.55;2.60;;;;;;;1.25;100.00;101840.19;5030372;28;20045;-79
2023/03/16 00:37:30;;;;;;;4.93;2.95;;;;;;;1.25;100.00;101840.19;4991184;28;20064;-79
2023/03/16 00:39:59;;;;;;;4.20;2.63;;;;;;;1.25;100.00;101845.38;5030072;28;20041;-79
2023/03/16 00:42:30;;;;;;;6.72;2.90;;;;;;;1.24;100.00;101849.69;5031249;28;20049;-78
2023/03/16 00:44:58;;;;;;;3.90;2.40;;;;;;;1.23;100.00;101847.00;4996588;28;20053;-79
2023/03/16 00:47:30;;;;;;;7.72;2.25;;;;;;;1.23;100.00;101852.19;4998526;28;20304;-80
2023/03/16 00:49:59;;;;;;;5.18;2.70;;;;;;;1.22;100.00;101848.69;5030029;28;20046;-79
2023/03/16 00:52:27;;;;;;;4.70;2.60;;;;;;;1.21;100.00;101844.34;4961158;28;20056;-80
2023/03/16 00:54:55;;;;;;;8.15;2.33;;;;;;;1.19;100.00;101839.84;4995776;28;20049;-80
2023/03/16 00:57:24;;;;;;;5.78;2.85;;;;;;;1.17;100.00;101831.97;4996901;28;20064;-80
2023/03/16 00:59:51;;;;;;;4.53;2.40;;;;;;;1.16;100.00;101831.06;5012709;28;20075;-79
2023/03/16 01:02:23;;;;;;;5.07;2.88;;;;;;;1.15;100.00;101834.50;4977657;28;20053;-79
2023/03/16 01:04:53;;;;;;;5.20;2.53;;;;;;;1.14;100.00;101824.00;5013080;28;20391;-79
2023/03/16 01:07:21;;;;;;;5.43;2.55;;;;;;;1.15;100.00;101826.69;5013191;28;20049;-79
2023/03/16 01:09:51;;;;;;;;;;;;;;;1.14;100.00;101826.59;4989010;28;20073;-79
2023/03/16 01:12:19;;;;;;;10.82;3.83;;;;;;;1.13;100.00;101830.00;5048644;28;19946;-79
2023/03/16 01:14:46;;;;;;;14.63;3.33;;;;;;;1.12;100.00;101818.72;5033462;28;20419;-79
2023/03/16 01:17:16;;;;;;;7.88;2.80;;;;;;;1.11;100.00;101816.91;5016236;28;20049;-80
2023/03/16 01:19:44;;;;;;;4.72;2.47;;;;;;;1.10;100.00;101811.66;5040488;28;20056;-79
2023/03/16 01:22:12;;;;;;;9.25;2.65;;;;;;;1.10;100.00;101809.06;5047899;28;20048;-79
2023/03/16 01:24:40;;;;;;;4.40;2.50;;;;;;;1.10;100.00;101806.47;5012828;28;20033;-79
2023/03/16 01:27:08;;;;;;;5.72;2.88;;;;;;;1.10;100.00;101796.09;5030213;28;20056;-78
2023/03/16 01:29:36;;;;;;;8.05;2.72;;;;;;;1.08;100.00;101785.63;5000683;28;20041;-79
2023/03/16 01:32:06;;;;;;;7.38;3.10;;;;;;;1.10;100.00;101786.59;5014355;28;20041;-79
2023/03/16 01:34:34;;;;;;;6.70;3.22;;;;;;;1.09;100.00;101779.59;5033285;28;20045;-79
2023/03/16 01:37:02;;;;;;;6.22;3.38;;;;;;;1.11;100.00;101782.28;5029988;28;20060;-79
2023/03/16 01:39:39;;;;;;;6.38;3.33;;;;;;;1.12;100.00;101782.38;5033108;28;20128;-80
2023/03/16 01:42:09;;;;;;;6.13;3.13;;;;;;;1.13;100.00;101776.38;4998510;28;20040;-79
2023/03/16 01:44:53;;;;;;;5.60;2.70;;;;;;;1.17;100.00;101778.34;5016118;28;20053;-78
2023/03/16 01:47:23;;;;;;;3.60;2.90;;;;;;;1.19;100.00;101777.53;5032676;28;20045;-80
2023/03/16 01:49:54;;;;;;;7.88;2.72;;;;;;;1.22;100.00;101772.50;5026021;28;20064;-78
2023/03/16 01:52:32;;;;;;;6.72;3.03;;;;;;;1.26;100.00;101771.88;5031957;28;20066;-78
2023/03/16 01:55:07;;;;;;;7.07;2.92;;;;;;;1.26;100.00;101769.28;5028850;28;20060;-79
2023/03/16 01:57:39;;;;;;;6.45;2.58;;;;;;;1.30;100.00;101760.84;5010632;28;20056;-81
2023/03/16 02:00:19;;;;;;;5.10;2.65;;;;;;;1.32;100.00;101770.53;5011831;28;20053;-80
2023/03/16 02:03:06;;;;;;;13.02;3.45;;;;;;;1.35;100.00;101762.00;5042620;28;20065;-80
2023/03/16 02:06:03;;;;;;;6.47;3.20;;;;;;;1.39;100.00;101760.47;5032815;28;20068;-80
2023/03/16 02:08:34;;;;;;;6.28;3.00;;;;;;;1.41;100.00;101754.53;5032456;28;20056;-78
2023/03/16 02:11:04;;;;;;;5.35;2.40;;;;;;;1.43;100.00;101745.13;4953295;28;20367;-77
2023/03/16 02:13:42;;;;;;;3.83;2.63;;;;;;;1.45;100.00;101747.81;5020117;28;20038;-78
2023/03/16 02:16:12;;;;;;;7.13;3.40;;;;;;;1.46;100.00;101744.41;5028369;28;20045;-79
2023/03/16 02:18:39;;;;;;;9.10;2.78;;;;;;;1.47;100.00;101744.47;5023925;28;20050;-77
2023/03/16 02:21:40;;;;;;;7.85;2.95;;;;;;;1.47;100.00;101728.88;4994344;28;20054;-77
2023/03/16 02:24:08;;;;;;;8.63;3.28;;;;;;;1.49;100.00;101728.97;5021180;28;20057;-79
2023/03/16 02:26:43;;;;;;;4.05;2.88;;;;;;;1.48;100.00;101729.81;5023198;28;20054;-79
2023/03/16 02:29:18;;;;;;;5.43;2.85;;;;;;;1.51;100.00;101724.75;4982184;28;20053;-77
2023/03/16 02:31:47;;;;;;;8.32;2.88;;;;;;;1.52;100.00;101719.66;5022168;28;20418;-78
2023/03/16 02:34:17;;;;;;;11.80;3.17;;;;;;;1.54;100.00;101719.75;5005636;28;20045;-77
2023/03/16 02:36:47;;;;;;;6.22;2.90;;;;;;;1.57;100.00;101719.91;5007552;28;20410;-79
2023/03/16 02:39:17;;;;;;;10.65;3.47;;;;;;;1.58;100.00;101715.59;5026692;28;20465;-78
2023/03/16 02:41:46;;;;;;;6.18;3.17;;;;;;;1.60;100.00;101708.78;5025927;28;20057;-78
2023/03/16 02:44:17;;;;;;;6.53;3.13;;;;;;;1.62;100.00;101715.84;4982017;28;20052;-77
2023/03/16 02:46:46;;;;;;;5.45;2.80;;;;;;;1.63;100.00;101702.03;5040389;28;20056;-78
2023/03/16 02:49:25;;;;;;;3.92;2.70;;;;;;;1.66;100.00;101709.09;4993607;28;20321;-78
2023/03/16 02:51:52;;;;;;;4.30;3.03;;;;;;;1.66;100.00;101699.59;5008369;28;20065;-78
2023/03/16 02:54:20;;;;;;;7.65;2.63;;;;;;;1.69;100.00;101702.38;5010116;28;20038;-78
2023/03/16 02:56:49;;;;;;;6.00;3.00;;;;;;;1.71;100.00;101702.44;5010847;28;20049;-78
2023/03/16 02:59:17;;;;;;;7.22;2.72;;;;;;;1.73;100.00;101696.50;4950591;28;20050;-78
2023/03/16 03:01:45;;;;;;;6.20;3.25;;;;;;;1.74;100.00;101697.44;5022394;28;20045;-78
2023/03/16 03:04:13;;;;;;;8.93;3.33;;;;;;;1.77;100.00;101702.75;4966997;28;20048;-78
2023/03/16 03:06:40;;;;;;;7.50;3.20;;;;;;;1.78;100.00;101699.38;5023688;28;20044;-78
2023/03/16 03:09:12;;;;;;;6.70;2.95;;;;;;;1.82;100.00;101692.63;5005284;28;20045;-77
2023/03/16 03:11:40;;;;;;;7.38;3.00;;;;;;;1.84;100.00;101688.41;5009063;28;20064;-78
2023/03/16 03:14:08;;;;;;;5.28;2.92;;;;;;;1.84;100.00;101681.50;5008042;28;20057;-79
2023/03/16 03:16:37;;;;;;;4.35;2.88;;;;;;;1.88;100.00;101687.75;4953383;28;20057;-78
2023/03/16 03:19:04;;;;;;;4.13;2.78;;;;;;;1.90;100.00;101679.19;5009990;28;20045;-79
2023/03/16 03:21:35;;;;;;;5.50;3.15;;;;;;;1.92;100.00;101680.16;5016873;28;20054;-77
2023/03/16 03:24:04;;;;;;;5.38;2.78;;;;;;;1.95;100.00;101677.75;4994888;28;20454;-79
2023/03/16 03:26:33;;;;;;;4.70;2.92;;;;;;;1.98;100.00;101674.38;4998922;28;20049;-78
2023/03/16 03:29:04;;;;;;;6.05;3.10;;;;;;;2.01;100.00;101677.16;5024766;28;20053;-77
2023/03/16 03:31:34;;;;;;;7.03;3.10;;;;;;;2.03;100.00;101675.53;4978762;28;20068;-77
2023/03/16 03:34:05;;;;;;;5.45;2.72;;;;;;;2.05;100.00;101673.91;5007050;28;20699;-79
2023/03/16 03:36:34;;;;;;;4.65;2.95;;;;;;;2.08;100.00;101662.75;5011730;28;20057;-78
2023/03/16 03:39:03;;;;;;;10.05;3.88;;;;;;;2.10;100.00;101655.94;4990868;28;20060;-78
2023/03/16 03:41:33;;;;;;;7.47;3.75;;;;;;;2.13;100.00;101656.97;5030333;28;20041;-78
2023/03/16 03:44:03;;;;;;;6.45;3.17;;;;;;;2.14;100.00;101657.88;4977181;28;20058;-78
2023/03/16 03:46:31;;;;;;;4.63;3.20;;;;;;;2.16;100.00;101653.66;4981101;28;20060;-77
2023/03/16 03:49:02;;;;;;;5.25;3.63;;;;;;;2.19;100.00;101660.69;4968462;28;20049;-77
2023/03/16 03:51:32;;;;;;;5.03;3.45;;;;;;;2.20;100.00;101662.50;4982363;28;20060;-78
2023/03/16 03:54:03;;;;;;;4.90;3.13;;;;;;;2.23;100.00;101660.03;5010672;28;20049;-78
2023/03/16 03:56:33;;;;;;;8.68;3.65;;;;;;;2.24;100.00;101665.31;5014165;28;20049;-78
2023/03/16 03:59:01;;;;;;;8.55;3.35;;;;;;;2.25;100.00;101651.50;5011142;28;20060;-78
2023/03/16 04:01:49;;;;;;;6.00;3.30;;;;;;;2.27;100.00;101647.28;5016129;28;20510;-77
2023/03/16 04:04:16;;;;;;;7.07;3.28;;;;;;;2.29;100.00;101644.75;4965589;28;20088;-78
2023/03/16 04:06:44;;;;;;;7.45;3.03;;;;;;;2.30;100.00;101650.00;5029598;28;20061;-78
2023/03/16 04:09:13;;;;;;;5.90;3.00;;;;;;;2.31;100.00;101641.41;4995809;28;20057;-78
2023/03/16 04:11:41;;;;;;;5.05;2.85;;;;;;;2.33;100.00;101638.88;5044587;28;20053;-77
2023/03/16 04:14:09;;;;;;;4.28;3.38;;;;;;;2.35;100.00;101642.44;5028451;28;20076;-78
2023/03/16 04:16:38;;;;;;;8.30;3.22;;;;;;;2.36;100.00;101633.81;4986027;28;20053;-78
2023/03/16 04:19:06;;;;;;;7.18;3.05;;;;;;;2.37;100.00;101633.00;4970091;28;20068;-78
2023/03/16 04:21:33;;;;;;;3.83;3.40;;;;;;;2.39;100.00;101633.97;5020625;28;20055;-78
2023/03/16 04:24:03;;;;;;;4.47;3.28;;;;;;;2.39;100.00;101627.88;5031088;28;20053;-78
2023/03/16 04:26:33;;;;;;;3.42;3.10;;;;;;;2.40;100.00;101614.03;5009227;28;20045;-78
2023/03/16 04:29:03;;;;;;;6.13;2.92;;;;;;;2.41;100.00;101627.13;5026193;28;20059;-77
2023/03/16 04:31:31;;;;;;;4.97;3.35;;;;;;;2.43;100.00;101628.09;5021894;28;20057;-78
2023/03/16 04:33:59;;;;;;;6.95;3.38;;;;;;;2.43;100.00;101622.00;4991001;28;20053;-77
2023/03/16 04:36:27;;;;;;;5.70;3.55;;;;;;;2.44;100.00;101610.78;5033038;28;20045;-77
2023/03/16 04:38:55;;;;;;;4.75;3.47;;;;;;;2.44;100.00;101609.09;5030292;28;20053;-78
2023/03/16 04:41:23;;;;;;;6.35;3.35;;;;;;;2.45;100.00;101607.38;5034140;28;20056;-78
2023/03/16 04:44:13;;;;;;;6.60;3.05;;;;;;;2.45;100.00;101609.97;5048688;28;20049;-78
2023/03/16 04:46:40;;;;;;;5.70;3.67;;;;;;;2.45;100.00;101599.56;5031729;28;20040;-77
2023/03/16 04:49:09;;;;;;;4.38;3.40;;;;;;;2.45;100.00;101584.84;5023432;28;20450;-78
2023/03/16 04:51:39;;;;;;;4.60;3.47;;;;;;;2.46;100.00;101588.34;4992380;28;20048;-78
2023/03/16 04:54:10;;;;;;;4.28;3.05;;;;;;;2.45;100.00;101584.84;5029654;28;20180;-78
2023/03/16 04:56:40;;;;;;;8.98;3.97;;;;;;;2.47;100.00;101587.50;5032619;28;20045;-78
2023/03/16 04:59:31;;;;;;;5.05;3.35;;;;;;;2.48;100.00;101578.91;5032257;28;20049;-78
2023/03/16 05:02:06;;;;;;;4.18;3.22;;;;;;;2.47;100.00;101575.38;5036721;28;20052;-78
2023/03/16 05:04:34;;;;;;;3.88;3.58;;;;;;;2.49;100.00;101575.47;5013412;28;20053;-78
2023/03/16 05:07:02;;;;;;;6.50;3.63;;;;;;;2.49;100.00;101576.34;4957726;28;20037;-78
2023/03/16 05:09:34;;;;;;;7.07;3.60;;;;;;;2.50;100.00;101583.34;5030390;28;20056;-78
2023/03/16 05:12:02;;;;;;;7.63;3.05;;;;;;;2.52;100.00;101568.69;5026853;28;20053;-78
2023/03/16 05:14:34;;;;;;;6.50;3.13;;;;;;;2.53;100.00;101570.50;5024834;28;20159;-77
2023/03/16 05:17:28;;;;;;;7.95;3.17;;;;;;;2.54;100.00;101574.00;5040041;28;20063;-78
2023/03/16 05:19:56;;;;;;;4.55;3.20;;;;;;;2.56;100.00;101569.75;5029250;28;20053;-77
2023/03/16 05:22:24;;;;;;;4.95;3.63;;;;;;;2.56;100.00;101564.53;4954757;28;20049;-78
2023/03/16 05:25:19;;;;;;;5.35;3.30;;;;;;;2.58;100.00;101575.03;5020845;28;20049;-78
2023/03/16 05:27:53;;;;;;;3.90;3.30;;;;;;;2.59;100.00;101563.78;5025996;28;20060;-78
2023/03/16 05:30:32;;;;;;;6.30;3.90;;;;;;;2.59;100.00;101577.72;5003737;28;20056;-78
2023/03/16 05:33:03;;;;;;;;;;;;;;;2.60;100.00;101579.47;4997919;28;20049;-75
2023/03/16 05:35:31;;;;;;;4.15;3.30;;;;;;;2.61;100.00;101570.88;5011959;28;19921;-78
2023/03/16 05:38:03;;;;;;;5.30;3.42;;;;;;;2.61;100.00;101573.47;4965961;28;20049;-79
2023/03/16 05:40:36;;;;;;;5.03;3.45;;;;;;;2.63;100.00;101574.44;5036562;28;20056;-78
2023/03/16 05:43:22;;;;;;;8.82;4.10;;;;;;;2.64;100.00;101572.72;5032557;28;20072;-78
2023/03/16 05:45:52;;;;;;;6.97;3.83;;;;;;;2.66;100.00;101579.75;5021711;28;20049;-78
2023/03/16 05:48:20;;;;;;;5.40;3.50;;;;;;;2.67;100.00;101572.88;5019359;28;20053;-78
2023/03/16 05:50:53;;;;;;;5.05;3.92;;;;;;;2.70;100.00;101579.09;5011782;28;20050;-79
2023/03/16 05:53:27;;;;;;;7.32;3.40;;;;;;;2.71;100.00;101580.00;4961990;28;20052;-79
2023/03/16 05:56:01;;;;;;;6.80;3.90;;;;;;;2.72;100.00;101572.25;5008175;28;20078;-78
2023/03/16 05:58:32;;;;;;;7.60;3.83;;;;;;;2.73;100.00;101566.22;5035713;28;20053;-78
2023/03/16 06:01:06;;;;;;;6.95;4.00;;;;;;;2.75;100.00;101573.22;5025387;28;20164;-78
2023/03/16 06:03:35;;;;;;;6.18;3.53;;;;;;;2.76;100.00;101572.38;5022260;28;20057;-78
2023/03/16 06:06:04;;;;;;;4.78;3.70;;;;;;;2.77;100.00;101579.38;5011172;28;20052;-78
2023/03/16 06:08:38;;;;;;;5.88;3.72;;;;;;;2.79;100.00;101582.94;4987002;28;20040;-78
2023/03/16 06:11:10;;;;;;;7.60;3.92;;;;;;;2.80;100.00;101584.72;5005468;28;20049;-78
2023/03/16 06:13:40;;;;;;;7.30;3.83;;;;;;;2.82;100.00;101588.31;5033602;28;20056;-78
2023/03/16 06:16:10;;;;;;;5.20;3.40;;;;;;;2.83;100.00;101579.66;5023692;28;20044;-78
2023/03/16 06:18:39;;;;;;;8.95;3.70;;;;;;;2.86;100.00;101579.81;5038330;28;20493;-79
2023/03/16 06:21:07;;;;;;;4.97;2.75;;;;;;;2.87;100.00;101574.69;5011031;28;20057;-78
2023/03/16 06:23:35;;;;;;;6.38;3.58;;;;;;;2.89;100.00;101579.94;5028703;28;20063;-77
2023/03/16 06:26:05;;;;;;;5.47;3.90;;;;;;;2.91;100.00;101570.47;4983335;28;20761;-78
2023/03/16 06:28:35;;;;;;;4.55;3.40;;;;;;;2.94;100.00;101581.03;5031459;28;20049;-78
2023/03/16 06:31:02;;;;;;;5.13;4.05;;;;;;;2.95;100.00;101563.69;5022340;28;20049;-78
2023/03/16 06:33:33;;;;;;;7.75;4.15;;;;;;;2.98;100.00;101579.47;5033354;28;20049;-78
2023/03/16 06:36:01;;;;;;;5.88;4.00;;;;;;;2.99;100.00;101561.31;5030326;28;20056;-79
2023/03/16 06:38:34;;;;;;;4.35;3.70;;;;;;;3.01;100.00;101570.09;4997596;28;20045;-78
2023/03/16 06:41:27;;;;;;;4.60;3.78;;;;;;;3.04;100.00;101583.22;4972127;28;20061;-78
2023/03/16 06:43:56;;;;;;;6.13;3.70;;;;;;;3.04;100.00;101572.81;5039387;28;20052;-79
2023/03/16 06:46:23;;;;;;;3.78;3.35;;;;;;;3.07;100.00;101553.84;5001415;28;20053;-77
2023/03/16 06:48:51;;;;;;;5.05;3.45;;;;;;;3.09;100.00;101566.13;5046156;28;20497;-77
2023/03/16 06:51:20;;;;;;;5.90;3.90;;;;;;;3.11;100.00;101561.88;5054939;28;20053;-77
2023/03/16 06:53:49;;;;;;;5.07;3.70;;;;;;;3.12;100.00;101553.25;5002668;28;20051;-77
2023/03/16 06:56:17;;;;;;;6.13;3.97;;;;;;;3.14;100.00;101561.13;4943411;28;20054;-77
2023/03/16 06:58:46;;;;;;;5.63;3.47;;;;;;;3.17;100.00;101557.75;5015185;28;20442;-77
2023/03/16 07:01:14;;;;;;;4.88;3.63;;;;;;;3.19;100.00;101561.31;5029016;28;20438;-77
2023/03/16 07:03:43;;;;;;;6.38;4.25;;;;;;;3.20;100.00;101556.19;5002760;28;20051;-77
2023/03/16 07:06:30;;;;;;;4.07;3.63;;;;;;;3.20;100.00;101564.00;5017698;28;20053;-78
2023/03/16 07:09:00;;;;;;;6.72;3.60;;;;;;;3.21;100.00;101564.88;5033504;28;20078;-76
2023/03/16 07:11:31;;;;;;;6.65;3.40;;;;;;;3.24;100.00;101552.00;4913455;28;20046;-76
2023/03/16 07:14:00;;;;;;;6.22;4.00;;;;;;;3.24;100.00;101552.88;5015638;28;20045;-77
2023/03/16 07:16:30;;;;;;;4.60;3.13;;;;;;;3.25;100.00;101556.38;5024457;28;20072;-77
2023/03/16 07:19:01;;;;;;;7.45;3.60;;;;;;;3.25;100.00;101558.97;5043317;28;20049;-76
2023/03/16 07:21:37;;;;;;;8.45;3.85;;;;;;;3.25;100.00;101556.38;5012916;28;20053;-77
2023/03/16 07:24:09;;;;;;;8.52;4.60;;;;;;;3.26;100.00;101566.88;4996713;28;20064;-77
2023/03/16 07:26:37;;;;;;;6.27;3.80;;;;;;;3.25;100.00;101559.91;4964668;28;20045;-77
2023/03/16 07:29:06;;;;;;;4.60;4.00;;;;;;;3.24;100.00;101560.69;5018666;28;20430;-77
2023/03/16 07:31:35;;;;;;;6.32;4.28;;;;;;;3.24;100.00;101571.13;5024419;28;20056;-76
2023/03/16 07:34:08;;;;;;;4.30;3.58;;;;;;;3.26;100.00;101569.47;5037205;28;20045;-76
2023/03/16 07:36:41;;;;;;;5.32;3.83;;;;;;;3.27;100.00;101565.16;5022762;28;20676;-77
2023/03/16 07:39:13;;;;;;;5.85;3.75;;;;;;;3.27;100.00;101573.88;5012923;28;20060;-77
2023/03/16 07:41:41;;;;;;;6.75;4.07;;;;;;;3.27;100.00;101575.56;4957369;28;20506;-77
2023/03/16 07:44:17;;;;;;;5.88;3.78;;;;;;;3.26;100.00;101566.88;5013880;28;20418;-78
2023/03/16 07:46:48;;;;;;;6.45;3.50;;;;;;;3.28;100.00;101566.94;4983957;28;20045;-77
2023/03/16 07:49:16;;;;;;;6.35;3.55;;;;;;;3.29;100.00;101566.13;5023114;28;20084;-76
2023/03/16 07:51:45;;;;;;;7.63;3.88;;;;;;;3.30;100.00;101567.91;5004137;28;20075;-76
2023/03/16 07:54:14;;;;;;;5.30;3.70;;;;;;;3.32;100.00;101571.47;5020154;28;20056;-76
2023/03/16 07:56:43;;;;;;;8.77;4.20;;;;;;;3.32;100.00;101559.31;4958383;28;20041;-76
2023/03/16 07:59:45;;;;;;;6.32;3.90;;;;;;;3.35;100.00;101560.31;5012788;28;20053;-76
2023/03/16 08:02:17;;;;;;;4.22;2.95;;;;;;;3.38;100.00;101563.03;5004092;28;20076;-77
2023/03/16 08:04:45;;;;;;;4.10;3.70;;;;;;;3.40;100.00;101561.38;5036735;28;20694;-77
2023/03/16 08:07:14;;;;;;;5.97;4.05;;;;;;;3.42;100.00;101568.47;5019079;28;20045;-78
2023/03/16 08:09:51;;;;;;;5.20;3.72;;;;;;;3.47;100.00;101582.56;5025929;28;20044;-77
2023/03/16 08:12:26;;;;;;;8.05;3.80;;;;;;;3.54;100.00;101572.41;4985772;28;20403;-78
2023/03/16 08:14:53;;;;;;;5.18;4.25;;;;;;;3.58;100.00;101575.22;5024029;28;20041;-76
2023/03/16 08:17:26;;;;;;;6.35;4.10;;;;;;;3.61;100.00;101562.31;5025559;28;20041;-76
2023/03/16 08:19:54;;;;;;;7.25;4.15;;;;;;;3.64;100.00;101562.44;5019714;28;20044;-78
2023/03/16 08:22:23;;;;;;;7.63;3.72;;;;;;;3.68;100.00;101566.94;5024168;28;20053;-78
2023/03/16 08:24:51;;;;;;;5.30;3.63;;;;;;;3.73;100.00;101563.69;5039994;28;20500;-78
2023/03/16 08:27:21;;;;;;;5.20;3.65;;;;;;;3.76;100.00;101567.28;4979875;28;20986;-78
2023/03/16 08:29:54;;;;;;;6.28;3.72;;;;;;;3.79;100.00;101562.19;5026246;28;20049;-76
2023/03/16 08:32:24;;;;;;;8.75;3.03;;;;;;;3.81;100.00;101559.66;5025846;28;20053;-79
2023/03/16 08:34:52;;;;;;;8.80;4.32;;;;;;;3.84;100.00;101563.28;5024473;28;20045;-76
2023/03/16 08:37:20;;;;;;;5.53;3.90;;;;;;;3.86;100.00;101560.75;5027439;28;20537;-76
2023/03/16 08:39:51;;;;;;;;;;;;;;;3.90;100.00;101560.94;5014071;28;20572;-76
2023/03/16 08:42:19;;;;;;;4.93;4.07;;;;;;;3.93;100.00;101557.56;5034062;28;19944;-76
2023/03/16 08:44:54;;;;;;;5.50;4.28;;;;;;;3.94;100.00;101551.53;4986368;28;20553;-76
2023/03/16 08:47:21;;;;;;;4.55;4.03;;;;;;;3.98;100.00;101565.59;5002164;28;20821;-76
2023/03/16 08:49:49;;;;;;;6.40;3.80;;;;;;;4.01;100.00;101560.50;5024637;28;21090;-76
2023/03/16 08:52:18;;;;;;;4.65;3.63;;;;;;;4.02;100.00;101560.53;5023170;28;20053;-76
2023/03/16 08:54:45;;;;;;;6.88;3.97;;;;;;;4.04;100.00;101553.66;5025302;28;20049;-76
2023/03/16 08:57:28;;;;;;;8.52;4.63;;;;;;;4.08;100.00;101562.50;5029648;28;20045;-76
2023/03/16 08:59:56;;;;;;;4.22;3.50;;;;;;;4.10;100.00;101560.84;4979606;28;20033;-76
2023/03/16 09:02:24;;;;;;;7.88;4.10;;;;;;;4.10;100.00;101564.38;5001909;28;20060;-77
2023/03/16 09:04:51;;;;;;;5.03;4.10;;;;;;;4.09;100.00;101564.31;5008376;28;20521;-77
2023/03/16 09:07:19;;;;;;;6.28;4.43;;;;;;;4.09;100.00;101567.81;5029714;28;20628;-77
2023/03/16 09:09:47;;;;;;;7.45;4.25;;;;;;;4.08;100.00;101563.44;5024309;28;20052;-76
2023/03/16 09:12:16;;;;;;;7.22;3.97;;;;;;;4.09;100.00;101561.69;5031903;28;20449;-77
2023/03/16 09:14:44;;;;;;;7.22;4.07;;;;;;;4.10;100.00;101580.03;5015736;28;20061;-77
2023/03/16 09:17:12;;;;;;;4.20;3.65;;;;;;;4.11;100.00;101567.88;5012008;28;20056;-76
2023/03/16 09:19:39;;;;;;;4.93;3.60;;;;;;;4.12;100.00;101566.13;5044055;28;20680;-76
2023/03/16 09:22:19;;;;;;;4.50;3.80;;;;;;;4.16;100.00;101575.88;5043333;28;20063;-76
2023/03/16 09:24:48;;;;;;;5.50;4.20;;;;;;;4.15;100.00;101569.78;5005788;28;20414;-76
2023/03/16 09:27:17;;;;;;;6.85;4.30;;;;;;;4.16;100.00;101558.53;5041823;28;20041;-76
2023/03/16 09:29:45;;;;;;;9.00;4.05;;;;;;;4.17;100.00;101562.91;4978578;28;20049;-76
2023/03/16 09:32:13;;;;;;;6.90;4.03;;;;;;;4.20;100.00;101564.75;5025755;28;20037;-76
2023/03/16 09:34:43;;;;;;;6.55;4.45;;;;;;;4.22;100.00;101557.88;5026956;28;20064;-76
2023/03/16 09:37:11;;;;;;;4.90;4.15;;;;;;;4.24;100.00;101543.19;5020370;28;20049;-76
2023/03/16 09:39:38;;;;;;;7.03;4.22;;;;;;;4.24;100.00;101551.00;5041111;28;20064;-76
2023/03/16 09:42:49;;;;;;;7.35;4.22;;;;;;;4.26;100.00;101545.00;5021186;28;20060;-77
2023/03/16 09:45:31;;;;;;;;;;;;;;;4.29;100.00;101539.00;4998514;28;20059;-76
2023/03/16 09:48:02;;;;;;;8.82;4.65;;;;;;;4.35;100.00;101547.09;5010627;28;19924;-76
2023/03/16 09:50:35;;;;;;;6.10;4.38;;;;;;;4.39;100.00;101542.91;5039409;28;20044;-76
2023/03/16 09:53:28;;;;;;;5.47;4.00;;;;;;;4.41;100.00;101534.28;5012982;28;20049;-77
2023/03/16 09:56:28;;;;;;;10.20;5.32;;;;;;;4.46;100.00;101530.16;5041408;28;20037;-76
2023/03/16 09:58:57;;;;;;;9.68;4.70;;;;;;;4.52;100.00;101532.09;5018983;28;20045;-76
2023/03/16 10:01:36;;;;;;;7.95;5.10;;;;;;;4.55;100.00;101529.59;5003815;28;20065;-77
2023/03/16 10:04:19;;;;;;;9.38;5.15;;;;;;;4.57;100.00;101520.09;5029848;28;20045;-78
2023/03/16 10:07:11;;;;;;;6.43;4.32;;;;;;;4.60;100.00;101527.19;5039930;28;20056;-78
2023/03/16 10:10:01;;;;;;;4.95;4.45;;;;;;;4.65;100.00;101515.16;5033126;28;20064;-78
2023/03/16 10:12:36;;;;;;;9.30;4.80;;;;;;;4.68;100.00;101513.56;5003988;28;20068;-78
2023/03/16 10:15:12;;;;;;;5.90;4.57;;;;;;;4.75;100.00;101517.31;4985054;28;21993;-78
2023/03/16 10:17:58;;;;;;;5.35;4.63;;;;;;;4.83;100.00;101499.31;4995217;28;20045;-76
2023/03/16 10:20:31;;;;;;;9.07;4.72;;;;;;;4.90;100.00;101517.00;5010267;28;20050;-76
2023/03/16 10:23:04;;;;;;;8.23;4.78;;;;;;;5.01;100.00;101515.66;4993327;28;20613;-75
2023/03/16 10:25:44;;;;;;;7.10;4.82;;;;;;;5.10;100.00;101512.47;5005120;28;20927;-77
2023/03/16 10:28:20;;;;;;;4.82;4.13;;;;;;;5.25;100.00;101520.00;5005998;28;20041;-77
2023/03/16 10:30:51;;;;;;;10.43;4.80;;;;;;;5.33;100.00;101505.50;5011404;28;20044;-76
2023/03/16 10:33:26;;;;;;;5.20;4.55;;;;;;;5.41;100.00;101521.44;4970001;28;20052;-76
2023/03/16 10:36:01;;;;;;;5.30;4.03;;;;;;;5.43;100.00;101515.41;5019803;28;20494;-77
2023/03/16 10:38:29;;;;;;;8.10;4.47;;;;;;;5.46;100.00;101507.69;5015990;28;20505;-77
2023/03/16 10:40:56;;;;;;;8.93;4.78;;;;;;;5.43;100.00;101512.81;5015225;28;20053;-77
2023/03/16 10:43:24;;;;;;;8.93;4.38;;;;;;;5.46;100.00;101514.63;5007369;28;20065;-77
2023/03/16 10:45:58;;;;;;;5.60;4.97;;;;;;;5.45;100.00;101498.06;5009715;28;20049;-76
2023/03/16 10:48:27;;;;;;;4.90;4.03;;;;;;;5.48;100.00;101484.19;4963159;28;20466;-76
2023/03/16 10:50:56;;;;;;;7.50;4.60;;;;;;;5.50;100.00;101493.00;4973106;28;20045;-76
2023/03/16 10:53:34;;;;;;;9.07;4.53;;;;;;;5.51;100.00;101499.13;5004068;28;20053;-77
2023/03/16 10:56:11;;;;;;;7.43;5.25;;;;;;;5.52;100.00;101487.81;5016554;28;20045;-77
2023/03/16 10:58:41;;;;;;;9.45;5.30;;;;;;;5.55;100.00;101478.34;5017100;28;20045;-76
2023/03/16 11:01:16;;;;;;;9.70;5.13;;;;;;;5.60;100.00;101486.34;5003194;28;20059;-76
2023/03/16 11:03:49;;;;;;;6.60;5.18;;;;;;;5.60;100.00;101483.75;4956071;28;20056;-76
2023/03/16 11:06:29;;;;;;;5.43;4.43;;;;;;;5.59;100.00;101484.56;5014592;28;20045;-76
2023/03/16 11:09:18;;;;;;;5.32;4.80;;;;;;;5.60;100.00;101473.28;5000186;28;20041;-77
2023/03/16 11:11:48;;;;;;;6.20;4.60;;;;;;;5.62;100.00;101484.69;5027271;28;20053;-76
2023/03/16 11:14:19;;;;;;;5.68;4.43;;;;;;;5.62;100.00;101480.34;5028929;28;20053;-77
2023/03/16 11:17:08;;;;;;;7.28;4.80;;;;;;;5.59;100.00;101477.59;5018810;28;20053;-76
2023/03/16 11:19:44;;;;;;;8.95;4.90;;;;;;;5.56;100.00;101480.13;4975774;28;20049;-76
2023/03/16 11:22:26;;;;;;;5.45;4.60;;;;;;;5.54;100.00;101468.75;5037441;28;20056;-77
2023/03/16 11:25:05;;;;;;;7.15;4.25;;;;;;;5.53;100.00;101464.34;4997526;28;20052;-77
2023/03/16 11:28:11;;;;;;;7.80;4.95;;;;;;;5.53;100.00;101458.22;5018454;28;20049;-78
2023/03/16 11:30:45;;;;;;;7.40;4.60;;;;;;;5.53;100.00;101448.66;5010281;28;20071;-76
2023/03/16 11:33:14;;;;;;;7.55;4.85;;;;;;;5.51;100.00;101454.66;5034604;28;20414;-76
2023/03/16 11:35:45;;;;;;;6.63;4.85;;;;;;;5.45;100.00;101440.56;4951009;28;20060;-79
2023/03/16 11:39:00;;;;;;;4.85;4.10;;;;;;;5.44;100.00;101433.56;5027724;28;20493;-78
2023/03/16 11:41:43;;;;;;;8.52;5.07;;;;;;;5.40;100.00;101436.88;5015585;28;20056;-76
2023/03/16 11:44:22;;;;;;;6.43;4.63;;;;;;;5.39;100.00;101416.81;5011430;28;20045;-78
2023/03/16 11:47:09;;;;;;;6.37;4.80;;;;;;;5.38;100.00;101422.00;5044930;28;20642;-78
2023/03/16 11:49:51;;;;;;;7.50;4.60;;;;;;;5.36;100.00;101416.72;4990536;28;20037;-78